Monday 12 November 2012 - Romansleigh, North Devon

If you wish to post your complete observations, with or without comments, please use this forum.

Monday 12 November 2012 - Romansleigh, North Devon

Postby Andy Page » 2012 Nov 12, 09:12

12/0900 Z Nov 12: S F3 3500M RA 1ST000 8ST002 8.1/8.1 1012 RERA
Rmks: Heavy rain 0805-0815, with max rate of 5 mm/hr at 0814 Z. Standing water in fields.
0900-0900: max 10.0, min 4.0, rain 6.6 mm. 2100-0900: min 5.7, grass min (15-09) 2.1.
Andy Page
Romansleigh (195 m AMSL)
COL station 87028
Andy Page
 
Posts: 21
Joined: 2012 Jan 27, 20:09

Re: Monday 12 November 2012 - Romansleigh, North Devon

Postby Richard Hunt » 2012 Nov 12, 11:09

HSEA 120630Z 23007KT 9999 NSW BKN001 03/03 Q1017 NOSIG RMK

Day of month: 12
Time: 06:30 UTC
Wind: True direction = 230 degrees
Speed: 07 knots
Visibility: 10 km or more
No significant weather phenomena are observed at present
Clouds: Broken sky , at 100 feet
Temperature: 03 °C
Dewpoint: 03 °C
QNH (Sea-level pressure): 1017 mb
No significant changes expected in the near future

Remarks: Ground Frost. Grass minimum -0.2°c.
COL Station: 25020.

Watson W-8681 AWS. Standard Stevenson Screen. Maximum and Minimum screen thermometers. Grass minimum thermometer.
5" Copper standard rain gauge. Roof mounted annemometer.
Richard Hunt
 
Posts: 374
Joined: 2012 Jan 27, 19:23
Location: Hornsea, East Yorkshire. 10m AMSL

Re: Monday 12 November 2012 - Romansleigh, North Devon

Postby Andy Page » 2012 Nov 12, 17:07

Romansleigh, North Devon
12/1650 Z Nov 12: WSW F3 15KM 1ST000 5ST005 6SC040 11.5/11.3 1021
Rmks: Shreds of very low ST as moisture lifts from coniferous wood to west. Lower cloud now sufficiently broken to see AC and CI above. Max 12.0, rain (since 0900) 1.2 mm.
Andy Page
Romansleigh (195 m AMSL)
COL station 87028
Andy Page
 
Posts: 21
Joined: 2012 Jan 27, 20:09

Re: Monday 12 November 2012 - Romansleigh, North Devon

Postby Richard Hunt » 2012 Nov 12, 18:34

HSEA 121830Z 23012G17KT 4000 -BR OVC001 09/09 Q1017 RE-HZ RMK

Day of month: 12
Time: 18:30 UTC
Wind: True direction = 230 degrees
Speed: 12 knots, with Gusts of maximum speed 17 knots
Visibility: 4000 meters
Weather: Light Mist
Clouds: Overcast sky , at 100 feet
Temperature: 09 °C
Dewpoint: 09 °C
QNH (Sea-level pressure): 1017 mb
Since the previous observation: Light Haze

Remarks:
Showers on and off most of the day, dull with no sunshine and feeling cool.
COL Station: 25020.

Watson W-8681 AWS. Standard Stevenson Screen. Maximum and Minimum screen thermometers. Grass minimum thermometer.
5" Copper standard rain gauge. Roof mounted annemometer.
Richard Hunt
 
Posts: 374
Joined: 2012 Jan 27, 19:23
Location: Hornsea, East Yorkshire. 10m AMSL


Return to Current Conditions



Who is online

Users browsing this forum: No registered users and 1 guest

cron